createdAt,value
2018-10-17T00:01:15.709Z,13.40
2018-10-17T00:03:19.681Z,13.30
2018-10-17T00:05:23.735Z,13.30
2018-10-17T00:07:27.765Z,13.20
2018-10-17T00:09:31.840Z,13.20
2018-10-17T00:11:36.494Z,13.20
2018-10-17T00:13:40.552Z,13.20
2018-10-17T00:15:44.635Z,13.20
2018-10-17T00:17:48.742Z,13.20
2018-10-17T00:19:52.843Z,13.20
2018-10-17T00:21:56.973Z,13.20
2018-10-17T00:24:01.004Z,13.20
2018-10-17T00:26:05.249Z,13.20
2018-10-17T00:28:09.311Z,13.20
2018-10-17T00:30:13.832Z,13.20
2018-10-17T00:32:17.903Z,13.20
2018-10-17T00:34:21.982Z,13.20
2018-10-17T00:36:26.126Z,13.20
2018-10-17T00:38:30.175Z,13.20
2018-10-17T00:40:34.243Z,13.20
2018-10-17T00:42:38.259Z,13.10
2018-10-17T00:44:42.333Z,13.10
2018-10-17T00:46:46.462Z,13.10
2018-10-17T00:48:50.593Z,13.10
2018-10-17T00:50:54.744Z,13.10
2018-10-17T00:52:59.010Z,13.10
2018-10-17T00:55:03.213Z,13.10
2018-10-17T00:57:07.340Z,13.00
2018-10-17T00:59:14.728Z,13.00
2018-10-17T01:01:18.948Z,13.00
2018-10-17T01:03:22.994Z,13.00
2018-10-17T01:05:27.001Z,13.00
2018-10-17T01:07:31.047Z,12.90
2018-10-17T01:09:35.221Z,12.90
2018-10-17T01:11:39.825Z,12.80
2018-10-17T01:13:43.845Z,12.80
2018-10-17T01:15:47.917Z,12.80
2018-10-17T01:17:51.976Z,12.70
2018-10-17T01:19:56.152Z,12.70
2018-10-17T01:22:00.274Z,12.70
2018-10-17T01:24:04.980Z,12.70
2018-10-17T01:26:09.078Z,12.70
2018-10-17T01:28:13.134Z,12.70
2018-10-17T01:30:17.165Z,12.70
2018-10-17T01:32:21.217Z,12.70
2018-10-17T01:34:25.325Z,12.60
2018-10-17T01:36:29.444Z,12.60
2018-10-17T01:38:33.545Z,12.60
2018-10-17T01:40:37.631Z,12.60
2018-10-17T01:42:41.777Z,12.60
2018-10-17T01:44:45.904Z,12.60
2018-10-17T01:46:49.968Z,12.50
2018-10-17T01:48:54.483Z,12.50
2018-10-17T01:50:59.128Z,12.50
2018-10-17T01:53:03.453Z,12.50
2018-10-17T01:55:08.122Z,12.50
2018-10-17T01:57:12.201Z,12.50
2018-10-17T01:59:16.265Z,12.50
2018-10-17T02:01:20.315Z,12.50
2018-10-17T02:03:24.467Z,12.50
2018-10-17T02:05:28.470Z,12.50
2018-10-17T02:07:32.557Z,12.40
2018-10-17T02:09:36.666Z,12.40
2018-10-17T02:11:40.840Z,12.40
2018-10-17T02:13:44.982Z,12.40
2018-10-17T02:15:50.421Z,12.30
2018-10-17T02:17:54.508Z,12.30
2018-10-17T02:19:58.569Z,12.30
2018-10-17T02:22:02.631Z,12.30
2018-10-17T02:24:07.596Z,12.20
2018-10-17T02:26:11.703Z,12.20
2018-10-17T02:28:15.854Z,12.20
2018-10-17T02:30:19.931Z,12.30
2018-10-17T02:32:24.489Z,12.30
2018-10-17T02:34:28.569Z,12.30
2018-10-17T02:36:32.612Z,12.30
2018-10-17T02:38:36.674Z,12.30
2018-10-17T02:40:40.694Z,12.30
2018-10-17T02:42:44.765Z,12.30
2018-10-17T02:44:48.830Z,12.20
2018-10-17T02:46:52.912Z,12.20
2018-10-17T02:48:57.010Z,12.20
2018-10-17T02:51:01.032Z,12.20
2018-10-17T02:53:05.322Z,12.20
2018-10-17T02:55:09.879Z,12.20
2018-10-17T02:57:13.863Z,12.20
2018-10-17T02:59:18.068Z,12.30
2018-10-17T03:01:22.005Z,12.20
2018-10-17T03:03:26.126Z,12.20
2018-10-17T03:05:30.245Z,12.20
2018-10-17T03:07:34.406Z,12.20
2018-10-17T03:09:38.469Z,12.20
2018-10-17T03:11:42.502Z,12.20
2018-10-17T03:13:46.583Z,12.10
2018-10-17T03:15:50.637Z,12.20
2018-10-17T03:17:54.699Z,12.10
2018-10-17T03:19:58.810Z,12.20
2018-10-17T03:22:02.901Z,12.20
2018-10-17T03:24:06.933Z,12.10
2018-10-17T03:26:11.074Z,12.00
2018-10-17T03:28:16.156Z,12.00
2018-10-17T03:30:20.129Z,12.00
2018-10-17T03:32:24.148Z,11.90
2018-10-17T03:34:28.243Z,11.90
2018-10-17T03:36:32.331Z,11.90
2018-10-17T03:38:36.414Z,11.90
2018-10-17T03:40:40.446Z,11.90
2018-10-17T03:42:44.507Z,11.90
2018-10-17T03:44:48.609Z,11.90
2018-10-17T03:46:52.762Z,11.90
2018-10-17T03:48:56.800Z,11.90
2018-10-17T03:51:00.823Z,11.90
2018-10-17T03:53:04.954Z,11.90
2018-10-17T03:55:09.160Z,11.80
2018-10-17T03:57:13.402Z,11.80
2018-10-17T03:59:17.460Z,11.80
2018-10-17T04:01:21.545Z,11.80
2018-10-17T04:03:25.623Z,11.80
2018-10-17T04:05:29.668Z,11.80
2018-10-17T04:07:33.822Z,11.80
2018-10-17T04:09:38.199Z,11.70
2018-10-17T04:11:42.221Z,11.70
2018-10-17T04:13:46.362Z,11.70
2018-10-17T04:15:50.518Z,11.60
2018-10-17T04:17:54.530Z,11.60
2018-10-17T04:19:58.553Z,11.60
2018-10-17T04:22:02.652Z,11.60
2018-10-17T04:24:06.752Z,11.60
2018-10-17T04:26:10.925Z,11.60
2018-10-17T04:28:15.085Z,11.60
2018-10-17T04:30:19.117Z,11.50
2018-10-17T04:32:23.187Z,11.50
2018-10-17T04:34:27.195Z,11.50
2018-10-17T04:36:31.249Z,11.50
2018-10-17T04:38:35.289Z,11.50
2018-10-17T04:40:39.350Z,11.40
2018-10-17T04:42:43.732Z,11.40
2018-10-17T04:44:47.765Z,11.40
2018-10-17T04:46:51.837Z,11.40
2018-10-17T04:48:55.908Z,11.40
2018-10-17T04:51:00.012Z,11.40
2018-10-17T04:53:04.056Z,11.40
2018-10-17T04:55:09.023Z,11.40
2018-10-17T04:57:13.077Z,11.40
2018-10-17T04:59:17.324Z,11.50
2018-10-17T05:01:21.389Z,11.50
2018-10-17T05:03:25.392Z,11.50
2018-10-17T05:05:29.481Z,11.50
2018-10-17T05:07:33.518Z,11.50
2018-10-17T05:09:37.582Z,11.50
2018-10-17T05:11:41.678Z,11.50
2018-10-17T05:13:45.696Z,11.50
2018-10-17T05:15:49.741Z,11.60
2018-10-17T05:17:53.830Z,11.50
2018-10-17T05:19:57.900Z,11.50
2018-10-17T05:22:01.945Z,11.40
2018-10-17T05:24:06.021Z,11.40
2018-10-17T05:26:10.057Z,11.40
2018-10-17T05:28:14.110Z,11.40
2018-10-17T05:30:18.242Z,11.40
2018-10-17T05:32:22.259Z,11.40
2018-10-17T05:34:26.322Z,11.40
2018-10-17T05:36:30.407Z,11.40
2018-10-17T05:38:34.482Z,11.40
2018-10-17T05:40:38.539Z,11.40
2018-10-17T05:42:42.599Z,11.40
2018-10-17T05:44:46.629Z,11.40
2018-10-17T05:46:50.751Z,11.40
2018-10-17T05:48:54.825Z,11.40
2018-10-17T05:50:58.877Z,11.40
2018-10-17T05:53:02.990Z,11.40
2018-10-17T05:55:07.317Z,11.50
2018-10-17T05:57:11.312Z,11.50
2018-10-17T05:59:15.548Z,11.50
2018-10-17T06:01:19.618Z,11.50
2018-10-17T06:03:23.809Z,11.60
2018-10-17T06:05:27.907Z,11.50
2018-10-17T06:07:31.977Z,11.60
2018-10-17T06:09:36.062Z,11.60
2018-10-17T06:11:40.112Z,11.60
2018-10-17T06:13:44.169Z,11.60
2018-10-17T06:15:48.189Z,11.60
2018-10-17T06:17:52.257Z,11.60
2018-10-17T06:19:56.366Z,11.60
2018-10-17T06:22:00.436Z,11.60
2018-10-17T06:24:04.561Z,11.60
2018-10-17T06:26:08.607Z,11.70
2018-10-17T06:28:12.826Z,11.70
2018-10-17T06:30:16.986Z,11.80
2018-10-17T06:32:21.049Z,11.80
2018-10-17T15:36:39.284Z,23.00
2018-10-17T15:38:25.070Z,22.90
2018-10-17T15:42:36.513Z,22.60
2018-10-17T15:44:21.486Z,22.60
2018-10-17T15:46:06.168Z,22.50
2018-10-17T15:47:50.343Z,22.50
2018-10-17T15:49:34.449Z,22.40
2018-10-17T15:51:18.650Z,22.40
2018-10-17T15:53:02.811Z,22.20
2018-10-17T15:54:47.075Z,22.20
2018-10-17T15:56:31.252Z,22.10
2018-10-17T15:58:15.446Z,22.10
2018-10-17T15:59:59.569Z,22.00
2018-10-17T16:01:43.647Z,22.00
2018-10-17T16:03:27.745Z,21.90
2018-10-17T16:05:12.423Z,21.80
2018-10-17T16:06:57.382Z,21.80
2018-10-17T16:08:41.523Z,21.70
2018-10-17T16:10:25.613Z,21.60
2018-10-17T16:12:09.794Z,21.50
2018-10-17T16:13:53.796Z,21.50
2018-10-17T16:15:40.949Z,21.40
2018-10-17T16:17:25.177Z,21.30
2018-10-17T16:19:09.294Z,21.20
2018-10-17T16:20:53.412Z,21.20
2018-10-17T16:22:37.592Z,21.00
2018-10-17T16:24:21.614Z,21.00
2018-10-17T16:26:05.793Z,20.90
2018-10-17T16:27:49.871Z,20.80
2018-10-17T16:29:33.919Z,20.70
2018-10-17T16:31:18.151Z,20.60
2018-10-17T16:33:02.131Z,20.60
2018-10-17T16:34:46.400Z,20.60
2018-10-17T16:36:30.496Z,20.50
2018-10-17T16:38:14.762Z,20.50
2018-10-17T16:39:58.745Z,20.50
2018-10-17T16:41:42.929Z,20.40
2018-10-17T16:43:27.584Z,20.30
2018-10-17T16:45:12.248Z,20.20
2018-10-17T16:46:56.564Z,20.10
2018-10-17T16:48:40.655Z,20.10
2018-10-17T16:50:24.854Z,20.10
2018-10-17T16:52:09.155Z,19.90
2018-10-17T16:53:53.305Z,19.90
2018-10-17T16:55:37.319Z,19.80
2018-10-17T16:57:21.419Z,19.80
2018-10-17T16:59:05.609Z,19.70
2018-10-17T17:00:49.670Z,19.60
2018-10-17T17:02:33.869Z,19.60
2018-10-17T17:04:17.967Z,19.50
2018-10-17T17:06:02.244Z,19.50
2018-10-17T17:07:46.787Z,19.50
2018-10-17T17:09:31.648Z,19.40
2018-10-17T17:11:16.600Z,19.30
2018-10-17T17:13:01.293Z,19.30
2018-10-17T17:14:45.927Z,19.30
2018-10-17T17:16:30.095Z,19.20
2018-10-17T17:18:14.214Z,19.10
2018-10-17T17:19:58.436Z,19.10
2018-10-17T17:21:42.593Z,19.00
2018-10-17T17:23:26.689Z,18.90
2018-10-17T17:25:10.906Z,18.90
2018-10-17T17:26:55.082Z,18.80
2018-10-17T17:28:39.760Z,18.80
2018-10-17T17:30:24.368Z,18.70
2018-10-17T17:32:08.549Z,18.70
2018-10-17T17:33:52.676Z,18.60
2018-10-17T17:35:36.849Z,18.60
2018-10-17T17:37:21.718Z,18.50
2018-10-17T17:39:08.003Z,18.50
2018-10-17T17:40:52.988Z,18.40
2018-10-17T17:42:37.103Z,18.40
2018-10-17T17:44:21.162Z,18.30
2018-10-17T17:46:05.581Z,18.30
2018-10-17T17:47:49.755Z,18.20
2018-10-17T17:49:33.926Z,18.20
2018-10-17T17:51:19.967Z,18.10
2018-10-17T17:53:04.179Z,18.10
2018-10-17T17:54:48.363Z,18.10
2018-10-17T17:56:32.839Z,18.10
2018-10-17T17:58:17.101Z,18.00
2018-10-17T18:00:01.342Z,17.90
2018-10-17T18:01:45.505Z,17.90
2018-10-17T18:03:29.770Z,17.90
2018-10-17T18:05:14.079Z,17.90
2018-10-17T18:06:58.327Z,17.90
2018-10-17T18:08:42.691Z,17.80
2018-10-17T18:10:26.991Z,17.80
2018-10-17T18:12:11.437Z,17.80
2018-10-17T18:13:57.247Z,17.80
2018-10-17T18:15:41.390Z,17.80
2018-10-17T18:17:25.529Z,17.70
2018-10-17T18:19:09.781Z,17.70
2018-10-17T18:20:54.433Z,17.60
2018-10-17T18:22:38.752Z,17.60
2018-10-17T18:24:23.015Z,17.50
2018-10-17T18:26:07.300Z,17.50
2018-10-17T18:27:52.246Z,17.50
2018-10-17T18:29:36.478Z,17.40
2018-10-17T18:31:20.661Z,17.40
2018-10-17T18:33:05.143Z,17.40
2018-10-17T18:34:49.359Z,17.40
2018-10-17T18:36:34.080Z,17.40
2018-10-17T18:38:18.424Z,17.40
2018-10-17T18:40:04.741Z,17.40
2018-10-17T18:41:49.341Z,17.30
2018-10-17T18:43:33.973Z,17.20
2018-10-17T18:45:18.146Z,17.20
2018-10-17T18:47:02.451Z,17.20
2018-10-17T18:48:46.679Z,17.10
2018-10-17T18:50:31.210Z,17.10
2018-10-17T18:52:15.708Z,17.10
2018-10-17T18:54:00.105Z,17.00
2018-10-17T18:55:44.369Z,17.00
2018-10-17T18:57:28.357Z,17.00
2018-10-17T18:59:12.453Z,17.00
2018-10-17T19:00:56.611Z,16.90
2018-10-17T19:02:40.810Z,16.90
2018-10-17T19:04:25.060Z,16.90
2018-10-17T19:06:09.218Z,16.90
2018-10-17T19:07:53.406Z,16.80
2018-10-17T19:09:37.724Z,16.80
2018-10-17T19:11:22.064Z,16.80
2018-10-17T19:13:06.602Z,16.70
2018-10-17T19:14:50.780Z,16.70
2018-10-17T19:16:36.175Z,16.70
2018-10-17T19:18:20.673Z,16.70
2018-10-17T19:20:05.025Z,16.60
2018-10-17T19:21:49.468Z,16.60
2018-10-17T19:23:33.790Z,16.60
2018-10-17T19:25:18.048Z,16.60
2018-10-17T19:27:02.371Z,16.50
2018-10-17T19:28:46.516Z,16.50
2018-10-17T19:30:30.673Z,16.50
2018-10-17T19:32:14.876Z,16.50
2018-10-17T19:33:59.253Z,16.40
2018-10-17T19:35:43.515Z,16.40
2018-10-17T19:37:27.966Z,16.40
2018-10-17T19:39:13.503Z,16.40
2018-10-17T19:40:57.970Z,16.30
2018-10-17T19:42:42.124Z,16.30
2018-10-17T19:44:26.371Z,16.20
2018-10-17T19:46:10.449Z,16.20
2018-10-17T19:47:54.654Z,16.20
2018-10-17T19:49:39.157Z,16.20
2018-10-17T19:51:23.265Z,16.20
2018-10-17T19:53:07.492Z,16.20
2018-10-17T19:54:51.677Z,16.10
2018-10-17T19:56:35.815Z,16.20
2018-10-17T19:58:20.011Z,16.10
2018-10-17T20:00:07.214Z,16.10
2018-10-17T20:01:51.357Z,16.10
2018-10-17T20:03:36.942Z,16.10
2018-10-17T20:05:27.744Z,16.10
2018-10-17T20:07:12.242Z,16.10
2018-10-17T20:08:56.614Z,16.10
2018-10-17T20:10:40.765Z,16.10
2018-10-17T20:12:24.968Z,16.00
2018-10-17T20:14:11.484Z,16.00
2018-10-17T20:15:56.131Z,15.90
2018-10-17T20:17:40.251Z,15.90
2018-10-17T20:19:24.438Z,16.00
2018-10-17T20:21:08.711Z,15.90
2018-10-17T20:22:52.749Z,15.90
2018-10-17T20:24:36.885Z,15.90
2018-10-17T20:26:23.074Z,15.90
2018-10-17T20:28:08.020Z,15.90
2018-10-17T20:29:58.169Z,15.90
2018-10-17T20:31:42.955Z,15.90
2018-10-17T20:33:27.855Z,15.80
2018-10-17T20:35:12.393Z,15.80
2018-10-17T20:36:56.448Z,15.80
2018-10-17T20:38:40.641Z,15.80
2018-10-17T20:40:24.747Z,15.70
2018-10-17T20:42:08.856Z,15.70
2018-10-17T20:43:53.200Z,15.70
2018-10-17T20:45:37.492Z,15.70
2018-10-17T20:47:21.732Z,15.70
2018-10-17T20:49:06.200Z,15.70
2018-10-17T20:50:50.331Z,15.60
2018-10-17T20:52:34.455Z,15.60
2018-10-17T20:54:18.657Z,15.60
2018-10-17T20:56:02.809Z,15.60
2018-10-17T20:57:47.175Z,15.60
2018-10-17T20:59:31.446Z,15.50
2018-10-17T21:01:15.896Z,15.50
2018-10-17T21:03:01.277Z,15.50
2018-10-17T21:04:45.977Z,15.50
2018-10-17T21:06:30.141Z,15.40
2018-10-17T21:08:14.348Z,15.40
2018-10-17T21:09:58.414Z,15.40
2018-10-17T21:11:42.579Z,15.40
2018-10-17T21:13:26.773Z,15.40
2018-10-17T21:15:10.867Z,15.40
2018-10-17T21:16:55.030Z,15.30
2018-10-17T21:18:39.336Z,15.30
2018-10-17T21:20:23.548Z,15.30
2018-10-17T21:22:07.672Z,15.30
2018-10-17T21:23:51.900Z,15.30
2018-10-17T21:25:35.975Z,15.20
2018-10-17T21:27:20.093Z,15.20
2018-10-17T21:29:04.299Z,15.20
2018-10-17T21:30:48.452Z,15.20
2018-10-17T21:32:32.621Z,15.20
2018-10-17T21:34:16.709Z,15.10
2018-10-17T21:36:00.797Z,15.10
2018-10-17T21:37:44.940Z,15.10
2018-10-17T21:39:29.073Z,15.10
2018-10-17T21:41:13.261Z,15.00
2018-10-17T21:42:57.343Z,15.10
2018-10-17T21:44:41.454Z,15.00
2018-10-17T21:46:25.660Z,15.00
2018-10-17T21:48:09.717Z,15.00
2018-10-17T21:49:53.822Z,15.00
2018-10-17T21:51:38.415Z,15.00
2018-10-17T21:53:22.570Z,15.00
2018-10-17T21:55:06.707Z,14.90
2018-10-17T21:56:50.828Z,14.80
2018-10-17T21:58:34.969Z,14.90
2018-10-17T22:00:19.072Z,14.80
2018-10-17T22:02:03.252Z,14.80
2018-10-17T22:03:47.296Z,14.80
2018-10-17T22:05:31.373Z,14.80
2018-10-17T22:07:15.443Z,14.80
2018-10-17T22:08:59.537Z,14.70
2018-10-17T22:10:43.659Z,14.70
2018-10-17T22:12:27.707Z,14.70
2018-10-17T22:14:11.923Z,14.70
2018-10-17T22:15:55.914Z,14.60
2018-10-17T22:17:40.037Z,14.60
2018-10-17T22:19:24.312Z,14.60
2018-10-17T22:21:08.374Z,14.60
2018-10-17T22:22:52.491Z,14.50
2018-10-17T22:24:36.622Z,14.50
2018-10-17T22:26:20.658Z,14.50
2018-10-17T22:28:04.896Z,14.50
2018-10-17T22:29:54.721Z,14.50
2018-10-17T22:31:38.829Z,14.50
2018-10-17T22:33:22.933Z,14.50
2018-10-17T22:35:07.200Z,14.50
2018-10-17T22:36:51.342Z,14.40
2018-10-17T22:38:35.449Z,14.40
2018-10-17T22:40:19.521Z,14.40
2018-10-17T22:42:03.654Z,14.40
2018-10-17T22:43:48.022Z,14.40
2018-10-17T22:45:32.120Z,14.30
2018-10-17T22:47:16.217Z,14.30
2018-10-17T22:49:00.272Z,14.30
2018-10-17T22:50:44.444Z,14.30
2018-10-17T22:52:28.551Z,14.30
2018-10-17T22:54:12.663Z,14.20
2018-10-17T22:55:57.061Z,14.20
2018-10-17T22:57:41.133Z,14.20
2018-10-17T22:59:25.194Z,14.20
2018-10-17T23:01:09.549Z,14.10
2018-10-17T23:02:53.739Z,14.10
2018-10-17T23:04:37.864Z,14.10
2018-10-17T23:06:22.068Z,14.10
2018-10-17T23:08:06.343Z,14.10
2018-10-17T23:09:50.638Z,14.10
2018-10-17T23:11:34.869Z,14.00
2018-10-17T23:13:19.030Z,14.00
2018-10-17T23:15:03.955Z,14.00
2018-10-17T23:16:48.334Z,14.00
2018-10-17T23:18:32.477Z,14.00
2018-10-17T23:20:16.723Z,14.00
2018-10-17T23:22:00.851Z,14.00
2018-10-17T23:23:44.993Z,14.00
2018-10-17T23:25:29.379Z,14.00
2018-10-17T23:27:13.557Z,14.00
2018-10-17T23:28:57.740Z,14.00
2018-10-17T23:30:41.910Z,14.00
2018-10-17T23:32:26.017Z,14.00
2018-10-17T23:34:10.221Z,14.00
2018-10-17T23:35:54.395Z,14.00
2018-10-17T23:37:38.550Z,14.00
2018-10-17T23:39:22.732Z,14.00
2018-10-17T23:41:06.957Z,14.00
2018-10-17T23:42:51.095Z,13.90
2018-10-17T23:44:35.297Z,13.90
2018-10-17T23:46:19.447Z,13.90
2018-10-17T23:48:03.685Z,13.90
2018-10-17T23:49:48.157Z,13.90
2018-10-17T23:51:32.285Z,13.90
2018-10-17T23:53:16.346Z,13.90
2018-10-17T23:55:00.419Z,13.80
2018-10-17T23:56:44.566Z,13.80
2018-10-17T23:58:28.794Z,13.80
